Zodiac — WTH5653 — position and weather

sailwx.info

Track history (hours):
 
Tides and Currents Weather Stations Pressure Air Temp Water Temp Dewpoint Dewpoint Depression Visibility Wind Speed Wind Dir Waves Ship Positions

Zodiac

Ship's website: http://www.schoonerzodiac.com/

Owner: VESSEL ZODIAC CORP, Bellingham, WA. More information available from US FCC via Universal Licensing System and Coast Guard Vessel Documentation Center.

Last reported at 2017-Jun-26 08:28 UTC. Time now 2017-Jun-26 08:41 UTC.
Position N 47°40' W 122°23'.

Type: Sailing vessel. MMSI: 366968070.

Date/timePositionNaut miles runAvg speedWind from/ knotsBaromVisibWave heightAir tempDewpointWater temp
2017-Jun-26 08:28N 47°40' W 122°23'0 0.0
2017-Jun-26 07:58N 47°40' W 122°23'0 0.0
2017-Jun-26 07:29N 47°40' W 122°23'0 0.0
2017-Jun-26 06:59N 47°40' W 122°23'0 0.0
2017-Jun-26 06:29N 47°40' W 122°23'0 0.0
2017-Jun-26 05:59N 47°40' W 122°23'0 0.0
2017-Jun-26 05:29N 47°40' W 122°23'0 0.0
2017-Jun-26 04:59N 47°40' W 122°23'0 0.0
2017-Jun-26 04:29N 47°40' W 122°23'1 1.8
2017-Jun-26 04:00N 47°40' W 122°22'2 4.4
2017-Jun-26 03:30N 47°38' W 122°20'0 0.4
2017-Jun-26 03:00N 47°38' W 122°20'2 3.2
2017-Jun-26 02:30N 47°39' W 122°18'2 3.7
2017-Jun-26 02:00N 47°39' W 122°16'1 1.9
2017-Jun-26 01:30N 47°39' W 122°14'0 0.5
2017-Jun-26 01:00N 47°39' W 122°15'1 1.9
2017-Jun-26 00:30N 47°40' W 122°14'2 3.1
2017-Jun-26 00:00N 47°39' W 122°16'2 4.7
2017-Jun-25 23:30N 47°39' W 122°19'2 3.1
2017-Jun-25 22:59N 47°38' W 122°20'0 0.0
2017-Jun-25 22:29N 47°38' W 122°20'0 0.0
2017-Jun-25 21:59N 47°38' W 122°20'0 0.0
2017-Jun-25 21:29N 47°38' W 122°20'0 0.0
2017-Jun-25 20:59N 47°38' W 122°20'0 0.0
2017-Jun-25 20:29N 47°38' W 122°20'0 0.0
2017-Jun-25 20:00N 47°38' W 122°20'2 3.2
2017-Jun-25 19:30N 47°39' W 122°19'3 5.4
2017-Jun-25 19:00N 47°39' W 122°15'0 0.6
2017-Jun-25 18:30N 47°39' W 122°15'1 1.0
2017-Jun-25 18:01N 47°39' W 122°15'0 0.6
2017-Jun-25 17:30N 47°39' W 122°16'0 0.2
2017-Jun-25 17:00N 47°39' W 122°16'1 2.9
2017-Jun-25 16:31N 47°39' W 122°18'2 4.1
2017-Jun-25 16:01N 47°38' W 122°20'0 0.0
2017-Jun-25 15:29N 47°38' W 122°20'0 0.0
2017-Jun-25 14:59N 47°38' W 122°20'0 0.0
2017-Jun-25 14:29N 47°38' W 122°20'0 0.0
2017-Jun-25 13:29N 47°38' W 122°20'0 0.0
2017-Jun-25 12:58N 47°38' W 122°20'0 0.0
2017-Jun-25 12:29N 47°38' W 122°20'0 0.0
2017-Jun-25 11:55N 47°38' W 122°20'0 0.0
2017-Jun-25 11:28N 47°38' W 122°20'0 0.0
2017-Jun-25 10:56N 47°38' W 122°20'0 0.0
2017-Jun-25 10:29N 47°38' W 122°20'0 0.0
2017-Jun-25 09:59N 47°38' W 122°20'0 0.0
2017-Jun-25 09:28N 47°38' W 122°20'0 0.0
2017-Jun-25 08:58N 47°38' W 122°20'0 0.0
2017-Jun-25 08:28N 47°38' W 122°20'0 0.0
2017-Jun-25 07:59N 47°38' W 122°20'0 0.0
2017-Jun-25 07:26N 47°38' W 122°20'0 0.0
2017-Jun-25 06:59N 47°38' W 122°20'0 0.0
2017-Jun-25 06:28N 47°38' W 122°20'0 0.0
2017-Jun-25 05:58N 47°38' W 122°20'0 0.0
2017-Jun-25 05:28N 47°38' W 122°20'0 0.0
2017-Jun-25 04:58N 47°38' W 122°20'0 0.0
2017-Jun-25 04:28N 47°38' W 122°20'0 0.0
2017-Jun-25 03:58N 47°38' W 122°20'0 0.0
2017-Jun-25 03:28N 47°38' W 122°20'0 0.0
2017-Jun-25 02:59N 47°38' W 122°20'0 0.0
2017-Jun-25 02:26N 47°38' W 122°20'0 0.0
2017-Jun-25 01:58N 47°38' W 122°20'0 0.0
2017-Jun-25 01:28N 47°38' W 122°20'0 0.0
2017-Jun-25 00:59N 47°38' W 122°20'0 0.0
2017-Jun-25 00:28N 47°38' W 122°20'0 0.0
2017-Jun-24 23:58N 47°38' W 122°20'0 0.0
2017-Jun-24 23:28N 47°38' W 122°20'0 0.0
2017-Jun-24 22:58N 47°38' W 122°20'0 0.0
2017-Jun-24 22:29N 47°38' W 122°20'0 0.0
2017-Jun-24 21:58N 47°38' W 122°20'0 0.0
2017-Jun-24 21:28N 47°38' W 122°20'0 0.0
2017-Jun-24 20:59N 47°38' W 122°20'0 0.0
2017-Jun-24 20:28N 47°38' W 122°20'0 0.0
2017-Jun-24 19:58N 47°38' W 122°20'0 0.0
2017-Jun-24 19:28N 47°38' W 122°20'0 0.0
2017-Jun-24 18:55N 47°38' W 122°20'0 0.0
2017-Jun-24 18:29N 47°38' W 122°20'0 0.0
2017-Jun-24 17:53N 47°38' W 122°20'0 0.0
2017-Jun-24 17:28N 47°38' W 122°20'0 0.0
2017-Jun-24 16:58N 47°38' W 122°20'0 0.0
2017-Jun-24 16:29N 47°38' W 122°20'0 0.0
2017-Jun-24 15:58N 47°38' W 122°20'0 0.0
2017-Jun-24 15:28N 47°38' W 122°20'0 0.0
2017-Jun-24 14:58N 47°38' W 122°20'0 0.0
2017-Jun-24 13:59N 47°38' W 122°20'0 0.0
2017-Jun-24 13:29N 47°38' W 122°20'0 0.0
2017-Jun-24 12:59N 47°38' W 122°20'0 0.0
2017-Jun-24 12:29N 47°38' W 122°20'0 0.0
2017-Jun-24 11:58N 47°38' W 122°20'0 0.0
2017-Jun-24 11:29N 47°38' W 122°20'0 0.0
2017-Jun-24 10:59N 47°38' W 122°20'0 0.0
2017-Jun-24 10:28N 47°38' W 122°20'0 0.0
2017-Jun-24 09:59N 47°38' W 122°20'0 0.0
2017-Jun-24 09:28N 47°38' W 122°20'0 0.0
2017-Jun-24 08:59N 47°38' W 122°20'0 0.0
2017-Jun-24 08:23N 47°38' W 122°20'0 0.0
2017-Jun-24 07:59N 47°38' W 122°20'0 0.0
2017-Jun-24 07:28N 47°38' W 122°20'0 0.0
2017-Jun-24 06:59N 47°38' W 122°20'0 0.0
2017-Jun-24 06:29N 47°38' W 122°20'0 0.0
2017-Jun-24 05:59N 47°38' W 122°20'0 0.0
2017-Jun-24 05:28N 47°38' W 122°20'0 0.0
2017-Jun-24 04:58N 47°38' W 122°20'0 0.0
2017-Jun-24 04:28N 47°38' W 122°20'0 0.0
2017-Jun-24 03:59N 47°38' W 122°20'0 0.0
2017-Jun-24 03:28N 47°38' W 122°20'0 0.0
2017-Jun-24 03:00N 47°38' W 122°20'0 0.0
2017-Jun-24 02:28N 47°38' W 122°20'0 0.0
2017-Jun-24 01:58N 47°38' W 122°20'0 0.0
2017-Jun-24 01:28N 47°38' W 122°20'0 0.0
2017-Jun-24 00:58N 47°38' W 122°20'0 0.0
2017-Jun-24 00:29N 47°38' W 122°20'0 0.0
2017-Jun-23 23:59N 47°38' W 122°20'0 0.0
2017-Jun-23 23:29N 47°38' W 122°20'0 0.0
2017-Jun-23 22:59N 47°38' W 122°20'0 0.0
2017-Jun-23 22:23N 47°38' W 122°20'0 0.0
2017-Jun-23 21:58N 47°38' W 122°20'0 0.0
2017-Jun-23 21:29N 47°38' W 122°20'0 0.0
2017-Jun-23 20:59N 47°38' W 122°20'0 0.0
2017-Jun-23 20:28N 47°38' W 122°20'0 0.0
2017-Jun-23 19:58N 47°38' W 122°20'0 0.0
2017-Jun-23 19:29N 47°38' W 122°20'0 0.0
2017-Jun-23 18:59N 47°38' W 122°20'0 0.0
2017-Jun-23 18:26N 47°38' W 122°20'0 0.0
2017-Jun-23 17:59N 47°38' W 122°20'0 0.0
2017-Jun-23 17:29N 47°38' W 122°20'0 0.0
2017-Jun-23 16:58N 47°38' W 122°20'0 0.0
2017-Jun-23 16:29N 47°38' W 122°20'0 0.0
2017-Jun-23 15:58N 47°38' W 122°20'0 0.0
2017-Jun-23 15:28N 47°38' W 122°20'0 0.0
2017-Jun-23 14:59N 47°38' W 122°20'0 0.0
2017-Jun-23 13:55N 47°38' W 122°20'0 0.0
2017-Jun-23 13:28N 47°38' W 122°20'0 0.0
2017-Jun-23 12:58N 47°38' W 122°20'0 0.0
2017-Jun-23 12:29N 47°38' W 122°20'0 0.0
2017-Jun-23 11:58N 47°38' W 122°20'0 0.0
2017-Jun-23 11:28N 47°38' W 122°20'0 0.0
2017-Jun-23 10:58N 47°38' W 122°20'0 0.0
2017-Jun-23 10:28N 47°38' W 122°20'0 0.0
2017-Jun-23 09:58N 47°38' W 122°20'0 0.0
2017-Jun-23 09:29N 47°38' W 122°20'0 0.0
2017-Jun-23 08:58N 47°38' W 122°20'0 0.0
2017-Jun-23 08:29N 47°38' W 122°20'0 0.0
2017-Jun-23 07:59N 47°38' W 122°20'0 0.0
2017-Jun-23 07:28N 47°38' W 122°20'0 0.0
2017-Jun-23 06:58N 47°38' W 122°20'0 0.0
2017-Jun-23 06:26N 47°38' W 122°20'0 0.0
2017-Jun-23 05:58N 47°38' W 122°20'0 0.0
2017-Jun-23 05:28N 47°38' W 122°20'0 0.0
2017-Jun-23 05:00N 47°38' W 122°20'1 2.8
2017-Jun-23 04:30N 47°39' W 122°20'2 4.5
2017-Jun-23 04:00N 47°39' W 122°16'1 2.3
2017-Jun-23 03:31N 47°39' W 122°15'2 3.1
2017-Jun-23 03:00N 47°40' W 122°13'0 0.7
2017-Jun-23 02:30N 47°40' W 122°13'2 4.3
2017-Jun-23 02:00N 47°39' W 122°16'2 3.9
2017-Jun-23 01:30N 47°39' W 122°19'2 3.3
2017-Jun-23 01:00N 47°38' W 122°20'0 0.0
2017-Jun-23 00:29N 47°38' W 122°20'0 0.0
2017-Jun-22 23:59N 47°38' W 122°20'0 0.0
2017-Jun-22 23:29N 47°38' W 122°20'0 0.0
2017-Jun-22 22:59N 47°38' W 122°20'0 0.0
2017-Jun-22 22:29N 47°38' W 122°20'0 0.0
2017-Jun-22 21:59N 47°38' W 122°20'0 0.0
2017-Jun-22 21:28N 47°38' W 122°20'0 0.0
2017-Jun-22 20:59N 47°38' W 122°20'0 0.0
2017-Jun-22 20:29N 47°38' W 122°20'0 0.0
2017-Jun-22 19:59N 47°38' W 122°20'0 0.0
2017-Jun-22 19:29N 47°38' W 122°20'0 0.0
2017-Jun-22 18:59N 47°38' W 122°20'0 0.0
2017-Jun-22 18:28N 47°38' W 122°20'0 0.0
2017-Jun-22 17:59N 47°38' W 122°20'0 0.0
2017-Jun-22 17:29N 47°38' W 122°20'0 0.0
2017-Jun-22 16:59N 47°38' W 122°20'0 0.0
2017-Jun-22 16:26N 47°38' W 122°20'0 0.0
2017-Jun-22 15:59N 47°38' W 122°20'0 0.0
2017-Jun-22 15:29N 47°38' W 122°20'0 0.0
2017-Jun-22 14:59N 47°38' W 122°20'0 0.0
2017-Jun-22 14:29N 47°38' W 122°20'0 0.0
2017-Jun-22 13:29N 47°38' W 122°20'0 0.0
2017-Jun-22 12:59N 47°38' W 122°20'0 0.0
2017-Jun-22 12:28N 47°38' W 122°20'0 0.0
2017-Jun-22 11:59N 47°38' W 122°20'0 0.0
2017-Jun-22 11:28N 47°38' W 122°20'0 0.0
2017-Jun-22 10:59N 47°38' W 122°20'0 0.0
2017-Jun-22 10:29N 47°38' W 122°20'0 0.0
2017-Jun-22 09:58N 47°38' W 122°20'0 0.0
2017-Jun-22 09:29N 47°38' W 122°20'0 0.0
2017-Jun-22 08:59N 47°38' W 122°20'0 0.0
2017-Jun-22 08:29N 47°38' W 122°20'0 0.0
2017-Jun-22 07:59N 47°38' W 122°20'0 0.0
2017-Jun-22 07:28N 47°38' W 122°20'0 0.0
2017-Jun-22 06:59N 47°38' W 122°20'0 0.0
2017-Jun-22 06:29N 47°38' W 122°20'0 0.0
2017-Jun-22 05:58N 47°38' W 122°20'0 0.0
2017-Jun-22 05:29N 47°38' W 122°20'0 0.0
2017-Jun-22 04:59N 47°38' W 122°20'2 3.4
2017-Jun-22 04:30N 47°39' W 122°19'2 4.4
2017-Jun-22 04:00N 47°39' W 122°16'1 2.3
2017-Jun-22 03:30N 47°40' W 122°15'1 2.4
2017-Jun-22 03:00N 47°40' W 122°13'2 4.4
2017-Jun-22 02:30N 47°39' W 122°16'2 3.2
2017-Jun-22 02:00N 47°39' W 122°18'1 2.6
2017-Jun-22 01:30N 47°38' W 122°20'1 1.5
2017-Jun-22 00:59N 47°38' W 122°20'0 0.0
2017-Jun-22 00:29N 47°38' W 122°20'0 0.0
2017-Jun-21 23:57N 47°38' W 122°20'0 0.0
2017-Jun-21 23:29N 47°38' W 122°20'0 0.0
2017-Jun-21 23:00N 47°38' W 122°20'0 0.0
2017-Jun-21 22:30N 47°38' W 122°20'0 0.0
2017-Jun-21 21:59N 47°38' W 122°20'0 0.0
2017-Jun-21 21:26N 47°38' W 122°20'0 0.0
2017-Jun-21 20:59N 47°38' W 122°20'0 0.0
2017-Jun-21 20:29N 47°38' W 122°20'0 0.0
2017-Jun-21 19:59N 47°38' W 122°20'0 0.0
2017-Jun-21 19:29N 47°38' W 122°20'0 0.0
2017-Jun-21 18:59N 47°38' W 122°20'0 0.0
2017-Jun-21 18:29N 47°38' W 122°20'0 0.0
2017-Jun-21 17:59N 47°38' W 122°20'0 0.0
2017-Jun-21 17:30N 47°38' W 122°20'0 0.0
2017-Jun-21 16:56N 47°38' W 122°20'0 0.0
2017-Jun-21 16:29N 47°38' W 122°20'0 0.0
2017-Jun-21 15:59N 47°38' W 122°20'0 0.0
2017-Jun-21 15:29N 47°38' W 122°20'0 0.0
2017-Jun-21 14:59N 47°38' W 122°20'0 0.0
2017-Jun-21 14:29N 47°38' W 122°20'0 0.0
2017-Jun-21 13:29N 47°38' W 122°20'0 0.0
2017-Jun-21 13:00N 47°38' W 122°20'0 0.0
2017-Jun-21 12:29N 47°38' W 122°20'0 0.0
2017-Jun-21 12:00N 47°38' W 122°20'0 0.0
2017-Jun-21 11:29N 47°38' W 122°20'0 0.0
2017-Jun-21 10:59N 47°38' W 122°20'0 0.0
2017-Jun-21 10:29N 47°38' W 122°20'0 0.0
2017-Jun-21 09:59N 47°38' W 122°20'0 0.0
2017-Jun-21 09:29N 47°38' W 122°20'0 0.0
2017-Jun-21 08:59N 47°38' W 122°20'0 0.0
2017-Jun-21 08:29N 47°38' W 122°20'0 0.0
2017-Jun-21 07:59N 47°38' W 122°20'0 0.0
2017-Jun-21 07:29N 47°38' W 122°20'0 0.0
2017-Jun-21 07:00N 47°38' W 122°20'0 0.0
2017-Jun-21 06:29N 47°38' W 122°20'0 0.0
2017-Jun-21 05:59N 47°38' W 122°20'0 0.0
2017-Jun-21 05:26N 47°38' W 122°20'0 0.0
2017-Jun-21 05:00N 47°38' W 122°20'2 3.4
2017-Jun-21 04:30N 47°39' W 122°19'3 5.1
2017-Jun-21 04:00N 47°39' W 122°15'1 2.6
2017-Jun-21 03:30N 47°40' W 122°14'1 1.6
2017-Jun-21 02:58N 47°40' W 122°13'1 1.6
2017-Jun-21 02:30N 47°39' W 122°14'2 3.1
2017-Jun-21 02:00N 47°39' W 122°17'2 4.1
2017-Jun-21 01:30N 47°39' W 122°20'1 2.6
2017-Jun-21 00:58N 47°38' W 122°20'0 0.0
2017-Jun-21 00:29N 47°38' W 122°20'0 0.0
2017-Jun-20 23:59N 47°38' W 122°20'0 0.0
2017-Jun-20 23:28N 47°38' W 122°20'0 0.0
2017-Jun-20 22:58N 47°38' W 122°20'0 0.0
2017-Jun-20 22:29N 47°38' W 122°20'0 0.0
2017-Jun-20 21:58N 47°38' W 122°20'0 0.0
2017-Jun-20 21:28N 47°38' W 122°20'0 0.0
2017-Jun-20 20:58N 47°38' W 122°20'0 0.0
2017-Jun-20 20:29N 47°38' W 122°20'0 0.0
2017-Jun-20 19:59N 47°38' W 122°20'0 0.0
2017-Jun-20 19:29N 47°38' W 122°20'0 0.0
2017-Jun-20 18:59N 47°38' W 122°20'0 0.0
2017-Jun-20 18:30N 47°38' W 122°20'0 0.0
2017-Jun-20 18:00N 47°38' W 122°20'0 0.0
2017-Jun-20 17:31N 47°38' W 122°20'0 0.0
2017-Jun-20 17:01N 47°38' W 122°20'0 0.0
2017-Jun-20 16:31N 47°38' W 122°20'0 0.0
2017-Jun-20 16:00N 47°38' W 122°20'0 0.0
2017-Jun-20 15:31N 47°38' W 122°20'0 0.0
2017-Jun-20 15:01N 47°38' W 122°20'0 0.0
2017-Jun-20 14:01N 47°38' W 122°20'0 0.0
2017-Jun-20 13:31N 47°38' W 122°20'0 0.0
2017-Jun-20 13:00N 47°38' W 122°20'0 0.0
2017-Jun-20 12:31N 47°38' W 122°20'0 0.0
2017-Jun-20 12:00N 47°38' W 122°20'0 0.0
2017-Jun-20 11:30N 47°38' W 122°20'0 0.0
2017-Jun-20 11:01N 47°38' W 122°20'0 0.0
2017-Jun-20 10:31N 47°38' W 122°20'0 0.0
2017-Jun-20 10:01N 47°38' W 122°20'0 0.0
2017-Jun-20 09:30N 47°38' W 122°20'0 0.0
2017-Jun-20 09:01N 47°38' W 122°20'0 0.0
2017-Jun-20 08:30N 47°38' W 122°20'0 0.0
2017-Jun-20 08:01N 47°38' W 122°20'0 0.0
2017-Jun-20 07:31N 47°38' W 122°20'0 0.0
2017-Jun-20 07:01N 47°38' W 122°20'0 0.0
2017-Jun-20 06:30N 47°38' W 122°20'0 0.0
2017-Jun-20 06:01N 47°38' W 122°20'0 0.0
2017-Jun-20 05:31N 47°38' W 122°20'0 0.0
2017-Jun-20 05:01N 47°38' W 122°20'0 0.0
2017-Jun-20 04:31N 47°38' W 122°20'0 0.0
2017-Jun-20 04:01N 47°38' W 122°20'0 0.0
2017-Jun-20 03:30N 47°38' W 122°20'0 0.0
2017-Jun-20 03:01N 47°38' W 122°20'0 0.0
2017-Jun-20 02:30N 47°38' W 122°20'0 0.0
2017-Jun-20 02:01N 47°38' W 122°20'0 0.0
2017-Jun-20 01:31N 47°38' W 122°20'0 0.0
2017-Jun-20 01:01N 47°38' W 122°20'0 0.0
2017-Jun-20 00:31N 47°38' W 122°20'0 0.0
2017-Jun-20 00:01N 47°38' W 122°20'0 0.0
2017-Jun-19 23:31N 47°38' W 122°20'0 0.0
2017-Jun-19 23:00N 47°38' W 122°20'1 2.7
2017-Jun-19 22:30N 47°39' W 122°21'2 3.8
2017-Jun-19 22:01N 47°40' W 122°24'0 0.3
2017-Jun-19 21:30N 47°40' W 122°24'1 1.6
2017-Jun-19 21:00N 47°40' W 122°25'1 2.4
2017-Jun-19 20:30N 47°40' W 122°26'3 7.0
2017-Jun-19 20:00N 47°37' W 122°26'4 7.6
2017-Jun-19 19:30N 47°33' W 122°25'4 7.5
2017-Jun-19 19:00N 47°29' W 122°24'4 7.8
2017-Jun-19 18:30N 47°26' W 122°22'4 7.4
2017-Jun-19 18:00N 47°22' W 122°22'4 8.2
2017-Jun-19 17:30N 47°19' W 122°26'3 5.1
2017-Jun-19 16:51N 47°16' W 122°26'0 0.0
2017-Jun-19 16:27N 47°16' W 122°26'0 0.0
2017-Jun-19 16:00N 47°16' W 122°26'0 0.0
2017-Jun-19 15:30N 47°16' W 122°26'0 0.0
2017-Jun-19 14:57N 47°16' W 122°26'0 0.0
2017-Jun-19 13:57N 47°16' W 122°26'0 0.0
2017-Jun-19 13:27N 47°16' W 122°26'0 0.0
2017-Jun-19 12:39N 47°16' W 122°26'0 0.0
2017-Jun-19 12:15N 47°16' W 122°26'0 0.0
2017-Jun-19 11:57N 47°16' W 122°26'0 0.0
2017-Jun-19 11:27N 47°16' W 122°26'0 0.0
2017-Jun-19 10:45N 47°16' W 122°26'0 0.0
2017-Jun-19 10:27N 47°16' W 122°26'0 0.0
2017-Jun-19 09:51N 47°16' W 122°26'0 0.0
2017-Jun-19 09:27N 47°16' W 122°26'0 0.0
2017-Jun-19 08:51N 47°16' W 122°26'0 0.0
2017-Jun-19 08:27N 47°16' W 122°26'0 0.0
2017-Jun-19 08:00N 47°16' W 122°26'0 0.0
2017-Jun-19 04:09N 47°16' W 122°26'0 0.0
2017-Jun-19 03:57N 47°16' W 122°26'0 0.0
2017-Jun-19 03:27N 47°16' W 122°26'0 0.0
2017-Jun-19 02:51N 47°16' W 122°26'0 0.0
2017-Jun-19 02:27N 47°16' W 122°26'0 0.0
2017-Jun-19 01:57N 47°16' W 122°26'0 0.0
2017-Jun-19 01:27N 47°16' W 122°26'0 0.0
2017-Jun-19 01:00N 47°16' W 122°26'1 2.7
2017-Jun-19 00:30N 47°17' W 122°27'0 0.7
2017-Jun-19 00:00N 47°17' W 122°27'0 0.6
2017-Jun-18 23:30N 47°17' W 122°27'1 0.1
2017-Jun-18 06:24N 47°16' W 122°26'0 0.0
2017-Jun-18 01:07N 47°16' W 122°26'0 0.1
2017-Jun-18 01:00N 47°16' W 122°26'2 3.5
2017-Jun-18 00:30N 47°17' W 122°28'0 1.0
2017-Jun-18 00:00N 47°17' W 122°27'0 0.3
2017-Jun-17 23:30N 47°17' W 122°27'2 3.3
2017-Jun-17 22:59N 47°16' W 122°26'0 0.0
2017-Jun-17 22:29N 47°16' W 122°26'0 0.0
2017-Jun-17 21:59N 47°16' W 122°26'0 0.0
2017-Jun-17 21:29N 47°16' W 122°26'0 0.0
2017-Jun-17 20:59N 47°16' W 122°26'0 0.0
2017-Jun-17 20:29N 47°16' W 122°26'0 0.0
2017-Jun-17 19:59N 47°16' W 122°26'0 0.0
2017-Jun-17 19:29N 47°16' W 122°26'0 0.0
2017-Jun-17 18:59N 47°16' W 122°26'0 0.0
2017-Jun-17 18:29N 47°16' W 122°26'0 0.0
2017-Jun-17 17:59N 47°16' W 122°26'0 0.0
2017-Jun-17 17:29N 47°16' W 122°26'0 0.0
2017-Jun-17 16:59N 47°16' W 122°26'0 0.0
2017-Jun-17 16:29N 47°16' W 122°26'0 0.0
2017-Jun-17 15:59N 47°16' W 122°26'0 0.0
2017-Jun-17 15:29N 47°16' W 122°26'0 0.0
2017-Jun-17 14:59N 47°16' W 122°26'0 0.0
2017-Jun-17 13:59N 47°16' W 122°26'0 0.0
2017-Jun-17 13:29N 47°16' W 122°26'0 0.0
2017-Jun-17 12:59N 47°16' W 122°26'0 0.0
2017-Jun-17 12:29N 47°16' W 122°26'0 0.0
2017-Jun-17 11:56N 47°16' W 122°26'0 0.0
2017-Jun-17 11:29N 47°16' W 122°26'0 0.0
2017-Jun-17 10:59N 47°16' W 122°26'0 0.0
2017-Jun-17 10:29N 47°16' W 122°26'0 0.0
2017-Jun-17 09:59N 47°16' W 122°26'0 0.0
2017-Jun-17 09:29N 47°16' W 122°26'0 0.0
2017-Jun-17 08:59N 47°16' W 122°26'0 0.0
2017-Jun-17 08:29N 47°16' W 122°26'0 0.0
2017-Jun-17 07:59N 47°16' W 122°26'0 0.0
2017-Jun-17 07:29N 47°16' W 122°26'0 0.0
2017-Jun-17 06:59N 47°16' W 122°26'0 0.0
2017-Jun-17 06:29N 47°16' W 122°26'0 0.0
2017-Jun-17 05:59N 47°16' W 122°26'0 0.0
2017-Jun-17 05:29N 47°16' W 122°26'0 0.0
2017-Jun-17 04:56N 47°16' W 122°26'0 0.0
2017-Jun-17 04:29N 47°16' W 122°26'0 0.0
2017-Jun-17 03:59N 47°16' W 122°26'0 0.0
2017-Jun-17 03:29N 47°16' W 122°26'0 0.0
2017-Jun-17 02:59N 47°16' W 122°26'0 0.0
2017-Jun-17 02:29N 47°16' W 122°26'0 0.0
2017-Jun-17 01:59N 47°16' W 122°26'0 0.0
2017-Jun-17 01:29N 47°16' W 122°26'0 0.1
2017-Jun-17 01:00N 47°16' W 122°26'1 2.6
2017-Jun-17 00:30N 47°17' W 122°27'0 0.9
2017-Jun-17 00:00N 47°17' W 122°27'1 1.4
2017-Jun-16 23:30N 47°17' W 122°28'2 3.7
2017-Jun-16 23:00N 47°16' W 122°26'0 0.3
2017-Jun-16 22:28N 47°16' W 122°26'0 0.0
2017-Jun-16 21:55N 47°16' W 122°26'0 0.0
2017-Jun-16 21:22N 47°16' W 122°26'0 0.0
2017-Jun-16 20:58N 47°16' W 122°26'0 0.0
2017-Jun-16 20:28N 47°16' W 122°26'0 0.0
2017-Jun-16 19:58N 47°16' W 122°26'0 0.0
2017-Jun-16 19:25N 47°16' W 122°26'0 0.0
2017-Jun-16 18:58N 47°16' W 122°26'0 0.0
2017-Jun-16 18:28N 47°16' W 122°26'0 0.0
2017-Jun-16 17:55N 47°16' W 122°26'0 0.0
2017-Jun-16 17:28N 47°16' W 122°26'0 0.0
2017-Jun-16 16:58N 47°16' W 122°26'0 0.0
2017-Jun-16 16:19N 47°16' W 122°26'0 0.0
2017-Jun-16 15:58N 47°16' W 122°26'0 0.0
2017-Jun-16 15:28N 47°16' W 122°26'0 0.0
2017-Jun-16 14:58N 47°16' W 122°26'0 0.0
2017-Jun-16 13:58N 47°16' W 122°26'0 0.0
2017-Jun-16 13:28N 47°16' W 122°26'0 0.0
2017-Jun-16 12:58N 47°16' W 122°26'0 0.0
2017-Jun-16 12:28N 47°16' W 122°26'0 0.0
2017-Jun-16 11:58N 47°16' W 122°26'0 0.0
2017-Jun-16 11:28N 47°16' W 122°26'0 0.0
2017-Jun-16 10:58N 47°16' W 122°26'0 0.0
2017-Jun-16 10:28N 47°16' W 122°26'0 0.0
2017-Jun-16 09:58N 47°16' W 122°26'0 0.0
2017-Jun-16 09:25N 47°16' W 122°26'0 0.0
2017-Jun-16 08:58N 47°16' W 122°26'  
Track history (hours):
 
Tides and Currents Weather Stations Pressure Air Temp Water Temp Dewpoint Dewpoint Depression Visibility Wind Speed Wind Dir Waves Ship Positions

Zodiac

Ship's website: http://www.schoonerzodiac.com/

Owner: VESSEL ZODIAC CORP, Bellingham, WA. More information available from US FCC via Universal Licensing System and Coast Guard Vessel Documentation Center.

Last reported at 2017-Jun-26 08:28 UTC. Time now 2017-Jun-26 08:41 UTC.
Position N 47°40' W 122°23'.

Type: Sailing vessel. MMSI: 366968070.

Date/timePositionNaut miles runAvg speedWind from/ knotsBaromVisibWave heightAir tempDewpointWater temp
2017-Jun-26 08:28N 47°40' W 122°23'0 0.0
2017-Jun-26 07:58N 47°40' W 122°23'0 0.0
2017-Jun-26 07:29N 47°40' W 122°23'0 0.0
2017-Jun-26 06:59N 47°40' W 122°23'0 0.0
2017-Jun-26 06:29N 47°40' W 122°23'0 0.0
2017-Jun-26 05:59N 47°40' W 122°23'0 0.0
2017-Jun-26 05:29N 47°40' W 122°23'0 0.0
2017-Jun-26 04:59N 47°40' W 122°23'0 0.0
2017-Jun-26 04:29N 47°40' W 122°23'1 1.8
2017-Jun-26 04:00N 47°40' W 122°22'2 4.4
2017-Jun-26 03:30N 47°38' W 122°20'0 0.4
2017-Jun-26 03:00N 47°38' W 122°20'2 3.2
2017-Jun-26 02:30N 47°39' W 122°18'2 3.7
2017-Jun-26 02:00N 47°39' W 122°16'1 1.9
2017-Jun-26 01:30N 47°39' W 122°14'0 0.5
2017-Jun-26 01:00N 47°39' W 122°15'1 1.9
2017-Jun-26 00:30N 47°40' W 122°14'2 3.1
2017-Jun-26 00:00N 47°39' W 122°16'2 4.7
2017-Jun-25 23:30N 47°39' W 122°19'2 3.1
2017-Jun-25 22:59N 47°38' W 122°20'0 0.0
2017-Jun-25 22:29N 47°38' W 122°20'0 0.0
2017-Jun-25 21:59N 47°38' W 122°20'0 0.0
2017-Jun-25 21:29N 47°38' W 122°20'0 0.0
2017-Jun-25 20:59N 47°38' W 122°20'0 0.0
2017-Jun-25 20:29N 47°38' W 122°20'0 0.0
2017-Jun-25 20:00N 47°38' W 122°20'2 3.2
2017-Jun-25 19:30N 47°39' W 122°19'3 5.4
2017-Jun-25 19:00N 47°39' W 122°15'0 0.6
2017-Jun-25 18:30N 47°39' W 122°15'1 1.0
2017-Jun-25 18:01N 47°39' W 122°15'0 0.6
2017-Jun-25 17:30N 47°39' W 122°16'0 0.2
2017-Jun-25 17:00N 47°39' W 122°16'1 2.9
2017-Jun-25 16:31N 47°39' W 122°18'2 4.1
2017-Jun-25 16:01N 47°38' W 122°20'0 0.0
2017-Jun-25 15:29N 47°38' W 122°20'0 0.0
2017-Jun-25 14:59N 47°38' W 122°20'0 0.0
2017-Jun-25 14:29N 47°38' W 122°20'0 0.0
2017-Jun-25 13:29N 47°38' W 122°20'0 0.0
2017-Jun-25 12:58N 47°38' W 122°20'0 0.0
2017-Jun-25 12:29N 47°38' W 122°20'0 0.0
2017-Jun-25 11:55N 47°38' W 122°20'0 0.0
2017-Jun-25 11:28N 47°38' W 122°20'0 0.0
2017-Jun-25 10:56N 47°38' W 122°20'0 0.0
2017-Jun-25 10:29N 47°38' W 122°20'0 0.0
2017-Jun-25 09:59N 47°38' W 122°20'0 0.0
2017-Jun-25 09:28N 47°38' W 122°20'0 0.0
2017-Jun-25 08:58N 47°38' W 122°20'0 0.0
2017-Jun-25 08:28N 47°38' W 122°20'0 0.0
2017-Jun-25 07:59N 47°38' W 122°20'0 0.0
2017-Jun-25 07:26N 47°38' W 122°20'0 0.0
2017-Jun-25 06:59N 47°38' W 122°20'0 0.0
2017-Jun-25 06:28N 47°38' W 122°20'0 0.0
2017-Jun-25 05:58N 47°38' W 122°20'0 0.0
2017-Jun-25 05:28N 47°38' W 122°20'0 0.0
2017-Jun-25 04:58N 47°38' W 122°20'0 0.0
2017-Jun-25 04:28N 47°38' W 122°20'0 0.0
2017-Jun-25 03:58N 47°38' W 122°20'0 0.0
2017-Jun-25 03:28N 47°38' W 122°20'0 0.0
2017-Jun-25 02:59N 47°38' W 122°20'0 0.0
2017-Jun-25 02:26N 47°38' W 122°20'0 0.0
2017-Jun-25 01:58N 47°38' W 122°20'0 0.0
2017-Jun-25 01:28N 47°38' W 122°20'0 0.0
2017-Jun-25 00:59N 47°38' W 122°20'0 0.0
2017-Jun-25 00:28N 47°38' W 122°20'0 0.0
2017-Jun-24 23:58N 47°38' W 122°20'0 0.0
2017-Jun-24 23:28N 47°38' W 122°20'0 0.0
2017-Jun-24 22:58N 47°38' W 122°20'0 0.0
2017-Jun-24 22:29N 47°38' W 122°20'0 0.0
2017-Jun-24 21:58N 47°38' W 122°20'0 0.0
2017-Jun-24 21:28N 47°38' W 122°20'0 0.0
2017-Jun-24 20:59N 47°38' W 122°20'0 0.0
2017-Jun-24 20:28N 47°38' W 122°20'0 0.0
2017-Jun-24 19:58N 47°38' W 122°20'0 0.0
2017-Jun-24 19:28N 47°38' W 122°20'0 0.0
2017-Jun-24 18:55N 47°38' W 122°20'0 0.0
2017-Jun-24 18:29N 47°38' W 122°20'0 0.0
2017-Jun-24 17:53N 47°38' W 122°20'0 0.0
2017-Jun-24 17:28N 47°38' W 122°20'0 0.0
2017-Jun-24 16:58N 47°38' W 122°20'0 0.0
2017-Jun-24 16:29N 47°38' W 122°20'0 0.0
2017-Jun-24 15:58N 47°38' W 122°20'0 0.0
2017-Jun-24 15:28N 47°38' W 122°20'0 0.0
2017-Jun-24 14:58N 47°38' W 122°20'0 0.0
2017-Jun-24 13:59N 47°38' W 122°20'0 0.0
2017-Jun-24 13:29N 47°38' W 122°20'0 0.0
2017-Jun-24 12:59N 47°38' W 122°20'0 0.0
2017-Jun-24 12:29N 47°38' W 122°20'0 0.0
2017-Jun-24 11:58N 47°38' W 122°20'0 0.0
2017-Jun-24 11:29N 47°38' W 122°20'0 0.0
2017-Jun-24 10:59N 47°38' W 122°20'0 0.0
2017-Jun-24 10:28N 47°38' W 122°20'0 0.0
2017-Jun-24 09:59N 47°38' W 122°20'0 0.0
2017-Jun-24 09:28N 47°38' W 122°20'0 0.0
2017-Jun-24 08:59N 47°38' W 122°20'0 0.0
2017-Jun-24 08:23N 47°38' W 122°20'0 0.0
2017-Jun-24 07:59N 47°38' W 122°20'0 0.0
2017-Jun-24 07:28N 47°38' W 122°20'0 0.0
2017-Jun-24 06:59N 47°38' W 122°20'0 0.0
2017-Jun-24 06:29N 47°38' W 122°20'0 0.0
2017-Jun-24 05:59N 47°38' W 122°20'0 0.0
2017-Jun-24 05:28N 47°38' W 122°20'0 0.0
2017-Jun-24 04:58N 47°38' W 122°20'0 0.0
2017-Jun-24 04:28N 47°38' W 122°20'0 0.0
2017-Jun-24 03:59N 47°38' W 122°20'0 0.0
2017-Jun-24 03:28N 47°38' W 122°20'0 0.0
2017-Jun-24 03:00N 47°38' W 122°20'0 0.0
2017-Jun-24 02:28N 47°38' W 122°20'0 0.0
2017-Jun-24 01:58N 47°38' W 122°20'0 0.0
2017-Jun-24 01:28N 47°38' W 122°20'0 0.0
2017-Jun-24 00:58N 47°38' W 122°20'0 0.0
2017-Jun-24 00:29N 47°38' W 122°20'0 0.0
2017-Jun-23 23:59N 47°38' W 122°20'0 0.0
2017-Jun-23 23:29N 47°38' W 122°20'0 0.0
2017-Jun-23 22:59N 47°38' W 122°20'0 0.0
2017-Jun-23 22:23N 47°38' W 122°20'0 0.0
2017-Jun-23 21:58N 47°38' W 122°20'0 0.0
2017-Jun-23 21:29N 47°38' W 122°20'0 0.0
2017-Jun-23 20:59N 47°38' W 122°20'0 0.0
2017-Jun-23 20:28N 47°38' W 122°20'0 0.0
2017-Jun-23 19:58N 47°38' W 122°20'0 0.0
2017-Jun-23 19:29N 47°38' W 122°20'0 0.0
2017-Jun-23 18:59N 47°38' W 122°20'0 0.0
2017-Jun-23 18:26N 47°38' W 122°20'0 0.0
2017-Jun-23 17:59N 47°38' W 122°20'0 0.0
2017-Jun-23 17:29N 47°38' W 122°20'0 0.0
2017-Jun-23 16:58N 47°38' W 122°20'0 0.0
2017-Jun-23 16:29N 47°38' W 122°20'0 0.0
2017-Jun-23 15:58N 47°38' W 122°20'0 0.0
2017-Jun-23 15:28N 47°38' W 122°20'0 0.0
2017-Jun-23 14:59N 47°38' W 122°20'0 0.0
2017-Jun-23 13:55N 47°38' W 122°20'0 0.0
2017-Jun-23 13:28N 47°38' W 122°20'0 0.0
2017-Jun-23 12:58N 47°38' W 122°20'0 0.0
2017-Jun-23 12:29N 47°38' W 122°20'0 0.0
2017-Jun-23 11:58N 47°38' W 122°20'0 0.0
2017-Jun-23 11:28N 47°38' W 122°20'0 0.0
2017-Jun-23 10:58N 47°38' W 122°20'0 0.0
2017-Jun-23 10:28N 47°38' W 122°20'0 0.0
2017-Jun-23 09:58N 47°38' W 122°20'0 0.0
2017-Jun-23 09:29N 47°38' W 122°20'0 0.0
2017-Jun-23 08:58N 47°38' W 122°20'0 0.0
2017-Jun-23 08:29N 47°38' W 122°20'0 0.0
2017-Jun-23 07:59N 47°38' W 122°20'0 0.0
2017-Jun-23 07:28N 47°38' W 122°20'0 0.0
2017-Jun-23 06:58N 47°38' W 122°20'0 0.0
2017-Jun-23 06:26N 47°38' W 122°20'0 0.0
2017-Jun-23 05:58N 47°38' W 122°20'0 0.0
2017-Jun-23 05:28N 47°38' W 122°20'0 0.0
2017-Jun-23 05:00N 47°38' W 122°20'1 2.8
2017-Jun-23 04:30N 47°39' W 122°20'2 4.5
2017-Jun-23 04:00N 47°39' W 122°16'1 2.3
2017-Jun-23 03:31N 47°39' W 122°15'2 3.1
2017-Jun-23 03:00N 47°40' W 122°13'0 0.7
2017-Jun-23 02:30N 47°40' W 122°13'2 4.3
2017-Jun-23 02:00N 47°39' W 122°16'2 3.9
2017-Jun-23 01:30N 47°39' W 122°19'2 3.3
2017-Jun-23 01:00N 47°38' W 122°20'0 0.0
2017-Jun-23 00:29N 47°38' W 122°20'0 0.0
2017-Jun-22 23:59N 47°38' W 122°20'0 0.0
2017-Jun-22 23:29N 47°38' W 122°20'0 0.0
2017-Jun-22 22:59N 47°38' W 122°20'0 0.0
2017-Jun-22 22:29N 47°38' W 122°20'0 0.0
2017-Jun-22 21:59N 47°38' W 122°20'0 0.0
2017-Jun-22 21:28N 47°38' W 122°20'0 0.0
2017-Jun-22 20:59N 47°38' W 122°20'0 0.0
2017-Jun-22 20:29N 47°38' W 122°20'0 0.0
2017-Jun-22 19:59N 47°38' W 122°20'0 0.0
2017-Jun-22 19:29N 47°38' W 122°20'0 0.0
2017-Jun-22 18:59N 47°38' W 122°20'0 0.0
2017-Jun-22 18:28N 47°38' W 122°20'0 0.0
2017-Jun-22 17:59N 47°38' W 122°20'0 0.0
2017-Jun-22 17:29N 47°38' W 122°20'0 0.0
2017-Jun-22 16:59N 47°38' W 122°20'0 0.0
2017-Jun-22 16:26N 47°38' W 122°20'0 0.0
2017-Jun-22 15:59N 47°38' W 122°20'0 0.0
2017-Jun-22 15:29N 47°38' W 122°20'0 0.0
2017-Jun-22 14:59N 47°38' W 122°20'0 0.0
2017-Jun-22 14:29N 47°38' W 122°20'0 0.0
2017-Jun-22 13:29N 47°38' W 122°20'0 0.0
2017-Jun-22 12:59N 47°38' W 122°20'0 0.0
2017-Jun-22 12:28N 47°38' W 122°20'0 0.0
2017-Jun-22 11:59N 47°38' W 122°20'0 0.0
2017-Jun-22 11:28N 47°38' W 122°20'0 0.0
2017-Jun-22 10:59N 47°38' W 122°20'0 0.0
2017-Jun-22 10:29N 47°38' W 122°20'0 0.0
2017-Jun-22 09:58N 47°38' W 122°20'0 0.0
2017-Jun-22 09:29N 47°38' W 122°20'0 0.0
2017-Jun-22 08:59N 47°38' W 122°20'0 0.0
2017-Jun-22 08:29N 47°38' W 122°20'0 0.0
2017-Jun-22 07:59N 47°38' W 122°20'0 0.0
2017-Jun-22 07:28N 47°38' W 122°20'0 0.0
2017-Jun-22 06:59N 47°38' W 122°20'0 0.0
2017-Jun-22 06:29N 47°38' W 122°20'0 0.0
2017-Jun-22 05:58N 47°38' W 122°20'0 0.0
2017-Jun-22 05:29N 47°38' W 122°20'0 0.0
2017-Jun-22 04:59N 47°38' W 122°20'2 3.4
2017-Jun-22 04:30N 47°39' W 122°19'2 4.4
2017-Jun-22 04:00N 47°39' W 122°16'1 2.3
2017-Jun-22 03:30N 47°40' W 122°15'1 2.4
2017-Jun-22 03:00N 47°40' W 122°13'2 4.4
2017-Jun-22 02:30N 47°39' W 122°16'2 3.2
2017-Jun-22 02:00N 47°39' W 122°18'1 2.6
2017-Jun-22 01:30N 47°38' W 122°20'1 1.5
2017-Jun-22 00:59N 47°38' W 122°20'0 0.0
2017-Jun-22 00:29N 47°38' W 122°20'0 0.0
2017-Jun-21 23:57N 47°38' W 122°20'0 0.0
2017-Jun-21 23:29N 47°38' W 122°20'0 0.0
2017-Jun-21 23:00N 47°38' W 122°20'0 0.0
2017-Jun-21 22:30N 47°38' W 122°20'0 0.0
2017-Jun-21 21:59N 47°38' W 122°20'0 0.0
2017-Jun-21 21:26N 47°38' W 122°20'0 0.0
2017-Jun-21 20:59N 47°38' W 122°20'0 0.0
2017-Jun-21 20:29N 47°38' W 122°20'0 0.0
2017-Jun-21 19:59N 47°38' W 122°20'0 0.0
2017-Jun-21 19:29N 47°38' W 122°20'0 0.0
2017-Jun-21 18:59N 47°38' W 122°20'0 0.0
2017-Jun-21 18:29N 47°38' W 122°20'0 0.0
2017-Jun-21 17:59N 47°38' W 122°20'0 0.0
2017-Jun-21 17:30N 47°38' W 122°20'0 0.0
2017-Jun-21 16:56N 47°38' W 122°20'0 0.0
2017-Jun-21 16:29N 47°38' W 122°20'0 0.0
2017-Jun-21 15:59N 47°38' W 122°20'0 0.0
2017-Jun-21 15:29N 47°38' W 122°20'0 0.0
2017-Jun-21 14:59N 47°38' W 122°20'0 0.0
2017-Jun-21 14:29N 47°38' W 122°20'0 0.0
2017-Jun-21 13:29N 47°38' W 122°20'0 0.0
2017-Jun-21 13:00N 47°38' W 122°20'0 0.0
2017-Jun-21 12:29N 47°38' W 122°20'0 0.0
2017-Jun-21 12:00N 47°38' W 122°20'0 0.0
2017-Jun-21 11:29N 47°38' W 122°20'0 0.0
2017-Jun-21 10:59N 47°38' W 122°20'0 0.0
2017-Jun-21 10:29N 47°38' W 122°20'0 0.0
2017-Jun-21 09:59N 47°38' W 122°20'0 0.0
2017-Jun-21 09:29N 47°38' W 122°20'0 0.0
2017-Jun-21 08:59N 47°38' W 122°20'0 0.0
2017-Jun-21 08:29N 47°38' W 122°20'0 0.0
2017-Jun-21 07:59N 47°38' W 122°20'0 0.0
2017-Jun-21 07:29N 47°38' W 122°20'0 0.0
2017-Jun-21 07:00N 47°38' W 122°20'0 0.0
2017-Jun-21 06:29N 47°38' W 122°20'0 0.0
2017-Jun-21 05:59N 47°38' W 122°20'0 0.0
2017-Jun-21 05:26N 47°38' W 122°20'0 0.0
2017-Jun-21 05:00N 47°38' W 122°20'2 3.4
2017-Jun-21 04:30N 47°39' W 122°19'3 5.1
2017-Jun-21 04:00N 47°39' W 122°15'1 2.6
2017-Jun-21 03:30N 47°40' W 122°14'1 1.6
2017-Jun-21 02:58N 47°40' W 122°13'1 1.6
2017-Jun-21 02:30N 47°39' W 122°14'2 3.1
2017-Jun-21 02:00N 47°39' W 122°17'2 4.1
2017-Jun-21 01:30N 47°39' W 122°20'1 2.6
2017-Jun-21 00:58N 47°38' W 122°20'0 0.0
2017-Jun-21 00:29N 47°38' W 122°20'0 0.0
2017-Jun-20 23:59N 47°38' W 122°20'0 0.0
2017-Jun-20 23:28N 47°38' W 122°20'0 0.0
2017-Jun-20 22:58N 47°38' W 122°20'0 0.0
2017-Jun-20 22:29N 47°38' W 122°20'0 0.0
2017-Jun-20 21:58N 47°38' W 122°20'0 0.0
2017-Jun-20 21:28N 47°38' W 122°20'0 0.0
2017-Jun-20 20:58N 47°38' W 122°20'0 0.0
2017-Jun-20 20:29N 47°38' W 122°20'0 0.0
2017-Jun-20 19:59N 47°38' W 122°20'0 0.0
2017-Jun-20 19:29N 47°38' W 122°20'0 0.0
2017-Jun-20 18:59N 47°38' W 122°20'0 0.0
2017-Jun-20 18:30N 47°38' W 122°20'0 0.0
2017-Jun-20 18:00N 47°38' W 122°20'0 0.0
2017-Jun-20 17:31N 47°38' W 122°20'0 0.0
2017-Jun-20 17:01N 47°38' W 122°20'0 0.0
2017-Jun-20 16:31N 47°38' W 122°20'0 0.0
2017-Jun-20 16:00N 47°38' W 122°20'0 0.0
2017-Jun-20 15:31N 47°38' W 122°20'0 0.0
2017-Jun-20 15:01N 47°38' W 122°20'0 0.0
2017-Jun-20 14:01N 47°38' W 122°20'0 0.0
2017-Jun-20 13:31N 47°38' W 122°20'0 0.0
2017-Jun-20 13:00N 47°38' W 122°20'0 0.0
2017-Jun-20 12:31N 47°38' W 122°20'0 0.0
2017-Jun-20 12:00N 47°38' W 122°20'0 0.0
2017-Jun-20 11:30N 47°38' W 122°20'0 0.0
2017-Jun-20 11:01N 47°38' W 122°20'0 0.0
2017-Jun-20 10:31N 47°38' W 122°20'0 0.0
2017-Jun-20 10:01N 47°38' W 122°20'0 0.0
2017-Jun-20 09:30N 47°38' W 122°20'0 0.0
2017-Jun-20 09:01N 47°38' W 122°20'0 0.0
2017-Jun-20 08:30N 47°38' W 122°20'0 0.0
2017-Jun-20 08:01N 47°38' W 122°20'0 0.0
2017-Jun-20 07:31N 47°38' W 122°20'0 0.0
2017-Jun-20 07:01N 47°38' W 122°20'0 0.0
2017-Jun-20 06:30N 47°38' W 122°20'0 0.0
2017-Jun-20 06:01N 47°38' W 122°20'0 0.0
2017-Jun-20 05:31N 47°38' W 122°20'0 0.0
2017-Jun-20 05:01N 47°38' W 122°20'0 0.0
2017-Jun-20 04:31N 47°38' W 122°20'0 0.0
2017-Jun-20 04:01N 47°38' W 122°20'0 0.0
2017-Jun-20 03:30N 47°38' W 122°20'0 0.0
2017-Jun-20 03:01N 47°38' W 122°20'0 0.0
2017-Jun-20 02:30N 47°38' W 122°20'0 0.0
2017-Jun-20 02:01N 47°38' W 122°20'0 0.0
2017-Jun-20 01:31N 47°38' W 122°20'0 0.0
2017-Jun-20 01:01N 47°38' W 122°20'0 0.0
2017-Jun-20 00:31N 47°38' W 122°20'0 0.0
2017-Jun-20 00:01N 47°38' W 122°20'0 0.0
2017-Jun-19 23:31N 47°38' W 122°20'0 0.0
2017-Jun-19 23:00N 47°38' W 122°20'1 2.7
2017-Jun-19 22:30N 47°39' W 122°21'2 3.8
2017-Jun-19 22:01N 47°40' W 122°24'0 0.3
2017-Jun-19 21:30N 47°40' W 122°24'1 1.6
2017-Jun-19 21:00N 47°40' W 122°25'1 2.4
2017-Jun-19 20:30N 47°40' W 122°26'3 7.0
2017-Jun-19 20:00N 47°37' W 122°26'4 7.6
2017-Jun-19 19:30N 47°33' W 122°25'4 7.5
2017-Jun-19 19:00N 47°29' W 122°24'4 7.8
2017-Jun-19 18:30N 47°26' W 122°22'4 7.4
2017-Jun-19 18:00N 47°22' W 122°22'4 8.2
2017-Jun-19 17:30N 47°19' W 122°26'3 5.1
2017-Jun-19 16:51N 47°16' W 122°26'0 0.0
2017-Jun-19 16:27N 47°16' W 122°26'0 0.0
2017-Jun-19 16:00N 47°16' W 122°26'0 0.0
2017-Jun-19 15:30N 47°16' W 122°26'0 0.0
2017-Jun-19 14:57N 47°16' W 122°26'0 0.0
2017-Jun-19 13:57N 47°16' W 122°26'0 0.0
2017-Jun-19 13:27N 47°16' W 122°26'0 0.0
2017-Jun-19 12:39N 47°16' W 122°26'0 0.0
2017-Jun-19 12:15N 47°16' W 122°26'0 0.0
2017-Jun-19 11:57N 47°16' W 122°26'0 0.0
2017-Jun-19 11:27N 47°16' W 122°26'0 0.0
2017-Jun-19 10:45N 47°16' W 122°26'0 0.0
2017-Jun-19 10:27N 47°16' W 122°26'0 0.0
2017-Jun-19 09:51N 47°16' W 122°26'0 0.0
2017-Jun-19 09:27N 47°16' W 122°26'0 0.0
2017-Jun-19 08:51N 47°16' W 122°26'0 0.0
2017-Jun-19 08:27N 47°16' W 122°26'0 0.0
2017-Jun-19 08:00N 47°16' W 122°26'0 0.0
2017-Jun-19 04:09N 47°16' W 122°26'0 0.0
2017-Jun-19 03:57N 47°16' W 122°26'0 0.0
2017-Jun-19 03:27N 47°16' W 122°26'0 0.0
2017-Jun-19 02:51N 47°16' W 122°26'0 0.0
2017-Jun-19 02:27N 47°16' W 122°26'0 0.0
2017-Jun-19 01:57N 47°16' W 122°26'0 0.0
2017-Jun-19 01:27N 47°16' W 122°26'0 0.0
2017-Jun-19 01:00N 47°16' W 122°26'1 2.7
2017-Jun-19 00:30N 47°17' W 122°27'0 0.7
2017-Jun-19 00:00N 47°17' W 122°27'0 0.6
2017-Jun-18 23:30N 47°17' W 122°27'1 0.1
2017-Jun-18 06:24N 47°16' W 122°26'0 0.0
2017-Jun-18 01:07N 47°16' W 122°26'0 0.1
2017-Jun-18 01:00N 47°16' W 122°26'2 3.5
2017-Jun-18 00:30N 47°17' W 122°28'0 1.0
2017-Jun-18 00:00N 47°17' W 122°27'0 0.3
2017-Jun-17 23:30N 47°17' W 122°27'2 3.3
2017-Jun-17 22:59N 47°16' W 122°26'0 0.0
2017-Jun-17 22:29N 47°16' W 122°26'0 0.0
2017-Jun-17 21:59N 47°16' W 122°26'0 0.0
2017-Jun-17 21:29N 47°16' W 122°26'0 0.0
2017-Jun-17 20:59N 47°16' W 122°26'0 0.0
2017-Jun-17 20:29N 47°16' W 122°26'0 0.0
2017-Jun-17 19:59N 47°16' W 122°26'0 0.0
2017-Jun-17 19:29N 47°16' W 122°26'0 0.0
2017-Jun-17 18:59N 47°16' W 122°26'0 0.0
2017-Jun-17 18:29N 47°16' W 122°26'0 0.0
2017-Jun-17 17:59N 47°16' W 122°26'0 0.0
2017-Jun-17 17:29N 47°16' W 122°26'0 0.0
2017-Jun-17 16:59N 47°16' W 122°26'0 0.0
2017-Jun-17 16:29N 47°16' W 122°26'0 0.0
2017-Jun-17 15:59N 47°16' W 122°26'0 0.0
2017-Jun-17 15:29N 47°16' W 122°26'0 0.0
2017-Jun-17 14:59N 47°16' W 122°26'0 0.0
2017-Jun-17 13:59N 47°16' W 122°26'0 0.0
2017-Jun-17 13:29N 47°16' W 122°26'0 0.0
2017-Jun-17 12:59N 47°16' W 122°26'0 0.0
2017-Jun-17 12:29N 47°16' W 122°26'0 0.0
2017-Jun-17 11:56N 47°16' W 122°26'0 0.0
2017-Jun-17 11:29N 47°16' W 122°26'0 0.0
2017-Jun-17 10:59N 47°16' W 122°26'0 0.0
2017-Jun-17 10:29N 47°16' W 122°26'0 0.0
2017-Jun-17 09:59N 47°16' W 122°26'0 0.0
2017-Jun-17 09:29N 47°16' W 122°26'0 0.0
2017-Jun-17 08:59N 47°16' W 122°26'0 0.0
2017-Jun-17 08:29N 47°16' W 122°26'0 0.0
2017-Jun-17 07:59N 47°16' W 122°26'0 0.0
2017-Jun-17 07:29N 47°16' W 122°26'0 0.0
2017-Jun-17 06:59N 47°16' W 122°26'0 0.0
2017-Jun-17 06:29N 47°16' W 122°26'0 0.0
2017-Jun-17 05:59N 47°16' W 122°26'0 0.0
2017-Jun-17 05:29N 47°16' W 122°26'0 0.0
2017-Jun-17 04:56N 47°16' W 122°26'0 0.0
2017-Jun-17 04:29N 47°16' W 122°26'0 0.0
2017-Jun-17 03:59N 47°16' W 122°26'0 0.0
2017-Jun-17 03:29N 47°16' W 122°26'0 0.0
2017-Jun-17 02:59N 47°16' W 122°26'0 0.0
2017-Jun-17 02:29N 47°16' W 122°26'0 0.0
2017-Jun-17 01:59N 47°16' W 122°26'0 0.0
2017-Jun-17 01:29N 47°16' W 122°26'0 0.1
2017-Jun-17 01:00N 47°16' W 122°26'1 2.6
2017-Jun-17 00:30N 47°17' W 122°27'0 0.9
2017-Jun-17 00:00N 47°17' W 122°27'1 1.4
2017-Jun-16 23:30N 47°17' W 122°28'2 3.7
2017-Jun-16 23:00N 47°16' W 122°26'0 0.3
2017-Jun-16 22:28N 47°16' W 122°26'0 0.0
2017-Jun-16 21:55N 47°16' W 122°26'0 0.0
2017-Jun-16 21:22N 47°16' W 122°26'0 0.0
2017-Jun-16 20:58N 47°16' W 122°26'0 0.0
2017-Jun-16 20:28N 47°16' W 122°26'0 0.0
2017-Jun-16 19:58N 47°16' W 122°26'0 0.0
2017-Jun-16 19:25N 47°16' W 122°26'0 0.0
2017-Jun-16 18:58N 47°16' W 122°26'0 0.0
2017-Jun-16 18:28N 47°16' W 122°26'0 0.0
2017-Jun-16 17:55N 47°16' W 122°26'0 0.0
2017-Jun-16 17:28N 47°16' W 122°26'0 0.0
2017-Jun-16 16:58N 47°16' W 122°26'0 0.0
2017-Jun-16 16:19N 47°16' W 122°26'0 0.0
2017-Jun-16 15:58N 47°16' W 122°26'0 0.0
2017-Jun-16 15:28N 47°16' W 122°26'0 0.0
2017-Jun-16 14:58N 47°16' W 122°26'0 0.0
2017-Jun-16 13:58N 47°16' W 122°26'0 0.0
2017-Jun-16 13:28N 47°16' W 122°26'0 0.0
2017-Jun-16 12:58N 47°16' W 122°26'0 0.0
2017-Jun-16 12:28N 47°16' W 122°26'0 0.0
2017-Jun-16 11:58N 47°16' W 122°26'0 0.0
2017-Jun-16 11:28N 47°16' W 122°26'0 0.0
2017-Jun-16 10:58N 47°16' W 122°26'0 0.0
2017-Jun-16 10:28N 47°16' W 122°26'0 0.0
2017-Jun-16 09:58N 47°16' W 122°26'0 0.0
2017-Jun-16 09:25N 47°16' W 122°26'0 0.0
2017-Jun-16 08:58N 47°16' W 122°26'  

Dump ship's entire track history